sensor_id;sensor_type;location;lat;lon;timestamp;P1;durP1;ratioP1;P2;durP2;ratioP2
15358;SDS011;7779;49.596;11.070;2024-01-15T00:02:06;20.03;;;11.10;;
15358;SDS011;7779;49.596;11.070;2024-01-15T00:04:39;24.27;;;12.40;;
15358;SDS011;7779;49.596;11.070;2024-01-15T00:07:06;23.50;;;11.63;;
15358;SDS011;7779;49.596;11.070;2024-01-15T00:09:32;23.90;;;11.57;;
15358;SDS011;7779;49.596;11.070;2024-01-15T00:11:59;25.77;;;12.37;;
15358;SDS011;7779;49.596;11.070;2024-01-15T00:14:25;24.73;;;12.33;;
15358;SDS011;7779;49.596;11.070;2024-01-15T00:16:52;21.97;;;12.40;;
15358;SDS011;7779;49.596;11.070;2024-01-15T00:19:20;21.87;;;12.13;;
15358;SDS011;7779;49.596;11.070;2024-01-15T00:21:46;21.07;;;11.63;;
15358;SDS011;7779;49.596;11.070;2024-01-15T00:24:12;23.97;;;12.73;;
15358;SDS011;7779;49.596;11.070;2024-01-15T00:26:39;23.10;;;11.57;;
15358;SDS011;7779;49.596;11.070;2024-01-15T00:29:06;21.93;;;12.40;;
15358;SDS011;7779;49.596;11.070;2024-01-15T00:31:33;22.50;;;11.70;;
15358;SDS011;7779;49.596;11.070;2024-01-15T00:33:59;21.90;;;11.13;;
15358;SDS011;7779;49.596;11.070;2024-01-15T00:36:25;23.43;;;12.30;;
15358;SDS011;7779;49.596;11.070;2024-01-15T00:38:51;23.47;;;11.70;;
15358;SDS011;7779;49.596;11.070;2024-01-15T00:41:17;22.23;;;11.73;;
15358;SDS011;7779;49.596;11.070;2024-01-15T00:43:43;24.00;;;11.90;;
15358;SDS011;7779;49.596;11.070;2024-01-15T00:46:10;22.90;;;12.30;;
15358;SDS011;7779;49.596;11.070;2024-01-15T00:48:36;24.43;;;12.17;;
15358;SDS011;7779;49.596;11.070;2024-01-15T00:51:03;20.50;;;10.87;;
15358;SDS011;7779;49.596;11.070;2024-01-15T00:53:29;22.03;;;12.17;;
15358;SDS011;7779;49.596;11.070;2024-01-15T00:55:56;21.67;;;10.90;;
15358;SDS011;7779;49.596;11.070;2024-01-15T00:58:22;22.63;;;11.27;;
15358;SDS011;7779;49.596;11.070;2024-01-15T01:00:48;21.70;;;12.00;;
15358;SDS011;7779;49.596;11.070;2024-01-15T01:03:13;19.97;;;11.60;;
15358;SDS011;7779;49.596;11.070;2024-01-15T01:05:39;22.73;;;11.60;;
15358;SDS011;7779;49.596;11.070;2024-01-15T01:08:05;22.83;;;11.70;;
15358;SDS011;7779;49.596;11.070;2024-01-15T01:10:31;23.63;;;12.23;;
15358;SDS011;7779;49.596;11.070;2024-01-15T01:12:56;26.10;;;12.40;;
15358;SDS011;7779;49.596;11.070;2024-01-15T01:15:22;20.93;;;11.60;;
15358;SDS011;7779;49.596;11.070;2024-01-15T01:17:49;23.50;;;12.27;;
15358;SDS011;7779;49.596;11.070;2024-01-15T01:20:15;21.40;;;11.70;;
15358;SDS011;7779;49.596;11.070;2024-01-15T01:22:41;23.13;;;12.23;;
15358;SDS011;7779;49.596;11.070;2024-01-15T01:25:07;24.83;;;12.70;;
15358;SDS011;7779;49.596;11.070;2024-01-15T01:27:35;21.90;;;11.63;;
15358;SDS011;7779;49.596;11.070;2024-01-15T01:30:01;22.53;;;12.23;;
15358;SDS011;7779;49.596;11.070;2024-01-15T01:32:27;21.37;;;10.87;;
15358;SDS011;7779;49.596;11.070;2024-01-15T01:34:53;24.93;;;13.03;;
15358;SDS011;7779;49.596;11.070;2024-01-15T01:37:19;18.50;;;10.90;;
15358;SDS011;7779;49.596;11.070;2024-01-15T01:39:45;24.17;;;11.97;;
15358;SDS011;7779;49.596;11.070;2024-01-15T01:42:11;20.63;;;12.33;;
15358;SDS011;7779;49.596;11.070;2024-01-15T01:44:37;19.57;;;11.23;;
15358;SDS011;7779;49.596;11.070;2024-01-15T01:47:03;20.80;;;11.47;;
15358;SDS011;7779;49.596;11.070;2024-01-15T01:49:30;19.43;;;10.30;;
15358;SDS011;7779;49.596;11.070;2024-01-15T01:51:57;20.17;;;11.07;;
15358;SDS011;7779;49.596;11.070;2024-01-15T01:54:25;25.10;;;12.60;;
15358;SDS011;7779;49.596;11.070;2024-01-15T01:56:54;21.23;;;11.40;;
15358;SDS011;7779;49.596;11.070;2024-01-15T01:59:21;21.00;;;11.80;;
15358;SDS011;7779;49.596;11.070;2024-01-15T02:01:48;20.80;;;11.37;;
15358;SDS011;7779;49.596;11.070;2024-01-15T02:04:15;20.00;;;11.23;;
15358;SDS011;7779;49.596;11.070;2024-01-15T02:06:42;21.20;;;11.00;;
15358;SDS011;7779;49.596;11.070;2024-01-15T02:09:08;20.53;;;11.40;;
15358;SDS011;7779;49.596;11.070;2024-01-15T02:11:35;24.60;;;11.53;;
15358;SDS011;7779;49.596;11.070;2024-01-15T02:14:01;22.13;;;12.27;;
15358;SDS011;7779;49.596;11.070;2024-01-15T02:16:28;19.87;;;11.50;;
15358;SDS011;7779;49.596;11.070;2024-01-15T02:18:53;20.20;;;11.57;;
15358;SDS011;7779;49.596;11.070;2024-01-15T02:21:19;20.73;;;10.57;;
15358;SDS011;7779;49.596;11.070;2024-01-15T02:23:45;22.40;;;12.77;;
15358;SDS011;7779;49.596;11.070;2024-01-15T02:26:11;23.13;;;11.43;;
15358;SDS011;7779;49.596;11.070;2024-01-15T02:28:37;19.67;;;11.53;;
15358;SDS011;7779;49.596;11.070;2024-01-15T02:31:03;19.47;;;11.60;;
15358;SDS011;7779;49.596;11.070;2024-01-15T02:33:28;21.60;;;11.97;;
15358;SDS011;7779;49.596;11.070;2024-01-15T02:35:54;18.93;;;11.23;;
15358;SDS011;7779;49.596;11.070;2024-01-15T02:38:20;19.10;;;10.80;;
15358;SDS011;7779;49.596;11.070;2024-01-15T02:40:46;20.73;;;10.60;;
15358;SDS011;7779;49.596;11.070;2024-01-15T02:43:12;19.43;;;10.67;;
15358;SDS011;7779;49.596;11.070;2024-01-15T02:45:38;19.20;;;10.87;;
15358;SDS011;7779;49.596;11.070;2024-01-15T02:48:04;20.03;;;10.93;;
15358;SDS011;7779;49.596;11.070;2024-01-15T02:50:31;18.13;;;10.73;;
15358;SDS011;7779;49.596;11.070;2024-01-15T02:52:56;20.27;;;10.63;;
15358;SDS011;7779;49.596;11.070;2024-01-15T02:55:22;18.77;;;10.63;;
15358;SDS011;7779;49.596;11.070;2024-01-15T02:57:48;23.13;;;12.10;;
15358;SDS011;7779;49.596;11.070;2024-01-15T03:00:14;20.63;;;10.47;;
15358;SDS011;7779;49.596;11.070;2024-01-15T03:02:40;20.07;;;10.57;;
15358;SDS011;7779;49.596;11.070;2024-01-15T03:05:08;18.30;;;10.27;;
15358;SDS011;7779;49.596;11.070;2024-01-15T03:07:37;19.83;;;10.90;;
15358;SDS011;7779;49.596;11.070;2024-01-15T03:10:04;20.67;;;11.53;;
15358;SDS011;7779;49.596;11.070;2024-01-15T03:12:31;22.73;;;11.60;;
15358;SDS011;7779;49.596;11.070;2024-01-15T03:14:57;20.50;;;10.80;;
15358;SDS011;7779;49.596;11.070;2024-01-15T03:17:22;19.40;;;11.43;;
15358;SDS011;7779;49.596;11.070;2024-01-15T03:19:48;17.40;;;9.40;;
15358;SDS011;7779;49.596;11.070;2024-01-15T03:22:15;18.37;;;10.17;;
15358;SDS011;7779;49.596;11.070;2024-01-15T03:24:41;18.00;;;10.23;;
15358;SDS011;7779;49.596;11.070;2024-01-15T03:27:07;18.67;;;10.17;;
15358;SDS011;7779;49.596;11.070;2024-01-15T03:29:33;17.67;;;9.93;;
15358;SDS011;7779;49.596;11.070;2024-01-15T03:31:58;20.50;;;9.90;;
15358;SDS011;7779;49.596;11.070;2024-01-15T03:34:24;18.23;;;10.33;;
15358;SDS011;7779;49.596;11.070;2024-01-15T03:36:50;17.63;;;10.20;;
15358;SDS011;7779;49.596;11.070;2024-01-15T03:39:16;17.60;;;10.80;;
15358;SDS011;7779;49.596;11.070;2024-01-15T03:41:41;17.53;;;8.87;;
15358;SDS011;7779;49.596;11.070;2024-01-15T03:44:07;19.10;;;9.60;;
15358;SDS011;7779;49.596;11.070;2024-01-15T03:46:33;16.57;;;9.67;;
15358;SDS011;7779;49.596;11.070;2024-01-15T03:48:58;16.53;;;9.80;;
15358;SDS011;7779;49.596;11.070;2024-01-15T03:51:24;15.40;;;8.87;;
15358;SDS011;7779;49.596;11.070;2024-01-15T03:53:50;16.60;;;9.10;;
15358;SDS011;7779;49.596;11.070;2024-01-15T03:56:15;17.27;;;9.47;;
15358;SDS011;7779;49.596;11.070;2024-01-15T03:58:42;15.97;;;9.30;;
15358;SDS011;7779;49.596;11.070;2024-01-15T04:01:08;16.87;;;9.47;;
15358;SDS011;7779;49.596;11.070;2024-01-15T04:03:35;17.73;;;10.23;;
15358;SDS011;7779;49.596;11.070;2024-01-15T04:06:01;15.60;;;8.90;;
15358;SDS011;7779;49.596;11.070;2024-01-15T04:08:28;13.13;;;8.63;;
15358;SDS011;7779;49.596;11.070;2024-01-15T04:10:53;16.27;;;8.83;;
15358;SDS011;7779;49.596;11.070;2024-01-15T04:13:20;15.60;;;9.37;;
15358;SDS011;7779;49.596;11.070;2024-01-15T04:15:46;15.53;;;8.33;;
15358;SDS011;7779;49.596;11.070;2024-01-15T04:18:11;14.83;;;8.97;;
15358;SDS011;7779;49.596;11.070;2024-01-15T04:20:37;13.40;;;7.90;;
15358;SDS011;7779;49.596;11.070;2024-01-15T04:23:03;15.20;;;8.57;;
15358;SDS011;7779;49.596;11.070;2024-01-15T04:25:30;14.13;;;9.03;;
15358;SDS011;7779;49.596;11.070;2024-01-15T04:27:56;15.70;;;8.83;;
15358;SDS011;7779;49.596;11.070;2024-01-15T04:30:21;13.47;;;8.40;;
15358;SDS011;7779;49.596;11.070;2024-01-15T04:32:47;15.17;;;9.07;;
15358;SDS011;7779;49.596;11.070;2024-01-15T04:35:13;13.57;;;7.60;;
15358;SDS011;7779;49.596;11.070;2024-01-15T04:37:41;16.33;;;8.57;;
15358;SDS011;7779;49.596;11.070;2024-01-15T04:40:08;15.73;;;8.23;;
15358;SDS011;7779;49.596;11.070;2024-01-15T04:42:34;13.60;;;8.23;;
15358;SDS011;7779;49.596;11.070;2024-01-15T04:45:00;14.80;;;8.27;;
15358;SDS011;7779;49.596;11.070;2024-01-15T04:47:26;13.77;;;8.23;;
15358;SDS011;7779;49.596;11.070;2024-01-15T04:49:51;14.00;;;7.63;;
15358;SDS011;7779;49.596;11.070;2024-01-15T04:52:17;14.80;;;8.40;;
15358;SDS011;7779;49.596;11.070;2024-01-15T04:54:43;15.07;;;8.47;;
15358;SDS011;7779;49.596;11.070;2024-01-15T04:57:08;14.17;;;8.17;;
15358;SDS011;7779;49.596;11.070;2024-01-15T04:59:34;13.17;;;7.80;;
15358;SDS011;7779;49.596;11.070;2024-01-15T05:02:00;12.87;;;7.70;;
15358;SDS011;7779;49.596;11.070;2024-01-15T05:04:25;16.70;;;8.27;;
15358;SDS011;7779;49.596;11.070;2024-01-15T05:06:51;12.77;;;8.00;;
15358;SDS011;7779;49.596;11.070;2024-01-15T05:09:17;15.23;;;8.40;;
15358;SDS011;7779;49.596;11.070;2024-01-15T05:11:43;14.33;;;7.70;;
15358;SDS011;7779;49.596;11.070;2024-01-15T05:14:09;13.43;;;8.10;;
15358;SDS011;7779;49.596;11.070;2024-01-15T05:16:36;13.63;;;8.03;;
15358;SDS011;7779;49.596;11.070;2024-01-15T05:19:04;14.13;;;8.10;;
15358;SDS011;7779;49.596;11.070;2024-01-15T05:21:29;15.57;;;8.27;;
15358;SDS011;7779;49.596;11.070;2024-01-15T05:23:55;15.10;;;8.33;;
15358;SDS011;7779;49.596;11.070;2024-01-15T05:26:21;14.70;;;8.47;;
15358;SDS011;7779;49.596;11.070;2024-01-15T05:28:46;16.00;;;8.50;;
15358;SDS011;7779;49.596;11.070;2024-01-15T05:31:13;12.33;;;7.87;;
15358;SDS011;7779;49.596;11.070;2024-01-15T05:33:38;15.10;;;8.93;;
15358;SDS011;7779;49.596;11.070;2024-01-15T05:36:05;15.47;;;8.93;;
15358;SDS011;7779;49.596;11.070;2024-01-15T05:38:31;15.53;;;7.80;;
15358;SDS011;7779;49.596;11.070;2024-01-15T05:40:57;13.67;;;7.53;;
15358;SDS011;7779;49.596;11.070;2024-01-15T05:43:22;12.30;;;7.60;;
15358;SDS011;7779;49.596;11.070;2024-01-15T05:45:48;15.43;;;8.83;;
15358;SDS011;7779;49.596;11.070;2024-01-15T05:48:14;15.03;;;8.27;;
15358;SDS011;7779;49.596;11.070;2024-01-15T05:50:39;16.80;;;9.03;;
15358;SDS011;7779;49.596;11.070;2024-01-15T05:53:06;14.67;;;8.80;;
15358;SDS011;7779;49.596;11.070;2024-01-15T05:55:32;14.67;;;8.50;;
15358;SDS011;7779;49.596;11.070;2024-01-15T05:57:57;14.93;;;9.30;;
15358;SDS011;7779;49.596;11.070;2024-01-15T06:00:23;14.83;;;8.70;;
15358;SDS011;7779;49.596;11.070;2024-01-15T06:02:49;14.80;;;8.60;;
15358;SDS011;7779;49.596;11.070;2024-01-15T06:05:14;14.03;;;8.43;;
15358;SDS011;7779;49.596;11.070;2024-01-15T06:07:41;14.63;;;8.43;;
15358;SDS011;7779;49.596;11.070;2024-01-15T06:10:06;13.50;;;7.80;;
15358;SDS011;7779;49.596;11.070;2024-01-15T06:12:33;15.00;;;8.87;;
15358;SDS011;7779;49.596;11.070;2024-01-15T06:14:58;13.60;;;7.83;;
15358;SDS011;7779;49.596;11.070;2024-01-15T06:17:24;15.07;;;7.80;;
15358;SDS011;7779;49.596;11.070;2024-01-15T06:19:50;13.27;;;7.93;;
15358;SDS011;7779;49.596;11.070;2024-01-15T06:22:16;14.33;;;7.90;;
15358;SDS011;7779;49.596;11.070;2024-01-15T06:24:42;14.33;;;8.60;;
15358;SDS011;7779;49.596;11.070;2024-01-15T06:27:08;14.80;;;8.13;;
15358;SDS011;7779;49.596;11.070;2024-01-15T06:29:37;13.63;;;7.40;;
15358;SDS011;7779;49.596;11.070;2024-01-15T06:32:03;14.13;;;7.37;;
15358;SDS011;7779;49.596;11.070;2024-01-15T06:34:29;12.87;;;7.57;;
15358;SDS011;7779;49.596;11.070;2024-01-15T06:36:55;13.67;;;7.40;;
15358;SDS011;7779;49.596;11.070;2024-01-15T06:39:21;13.70;;;7.27;;
15358;SDS011;7779;49.596;11.070;2024-01-15T06:41:46;13.27;;;7.67;;
15358;SDS011;7779;49.596;11.070;2024-01-15T06:44:12;13.10;;;7.80;;
15358;SDS011;7779;49.596;11.070;2024-01-15T06:46:44;14.03;;;7.73;;
15358;SDS011;7779;49.596;11.070;2024-01-15T06:49:11;16.40;;;7.93;;
15358;SDS011;7779;49.596;11.070;2024-01-15T06:51:37;13.00;;;7.60;;
15358;SDS011;7779;49.596;11.070;2024-01-15T06:54:03;12.37;;;7.27;;
15358;SDS011;7779;49.596;11.070;2024-01-15T06:56:29;12.03;;;7.30;;
15358;SDS011;7779;49.596;11.070;2024-01-15T06:58:56;13.53;;;7.67;;
15358;SDS011;7779;49.596;11.070;2024-01-15T07:01:22;12.40;;;7.83;;
15358;SDS011;7779;49.596;11.070;2024-01-15T07:03:48;12.90;;;6.90;;
15358;SDS011;7779;49.596;11.070;2024-01-15T07:06:13;12.83;;;7.40;;
15358;SDS011;7779;49.596;11.070;2024-01-15T07:08:39;12.57;;;7.43;;
15358;SDS011;7779;49.596;11.070;2024-01-15T07:11:06;11.40;;;7.07;;
15358;SDS011;7779;49.596;11.070;2024-01-15T07:13:32;12.30;;;7.60;;
15358;SDS011;7779;49.596;11.070;2024-01-15T07:15:58;11.50;;;7.03;;
15358;SDS011;7779;49.596;11.070;2024-01-15T07:18:24;10.47;;;6.70;;
15358;SDS011;7779;49.596;11.070;2024-01-15T07:20:51;13.00;;;7.87;;
15358;SDS011;7779;49.596;11.070;2024-01-15T07:23:16;13.63;;;7.50;;
15358;SDS011;7779;49.596;11.070;2024-01-15T07:25:43;12.37;;;6.50;;
15358;SDS011;7779;49.596;11.070;2024-01-15T07:28:09;12.00;;;6.63;;
15358;SDS011;7779;49.596;11.070;2024-01-15T07:30:34;12.73;;;7.00;;
15358;SDS011;7779;49.596;11.070;2024-01-15T07:33:00;11.13;;;6.63;;
15358;SDS011;7779;49.596;11.070;2024-01-15T07:35:26;13.53;;;6.83;;
15358;SDS011;7779;49.596;11.070;2024-01-15T07:37:52;12.77;;;7.23;;
15358;SDS011;7779;49.596;11.070;2024-01-15T07:40:18;12.47;;;6.77;;
15358;SDS011;7779;49.596;11.070;2024-01-15T07:42:43;11.40;;;7.27;;
15358;SDS011;7779;49.596;11.070;2024-01-15T07:45:10;11.53;;;7.20;;
15358;SDS011;7779;49.596;11.070;2024-01-15T07:47:36;13.13;;;7.43;;
15358;SDS011;7779;49.596;11.070;2024-01-15T07:50:02;11.87;;;7.73;;
15358;SDS011;7779;49.596;11.070;2024-01-15T07:52:29;12.43;;;7.03;;
15358;SDS011;7779;49.596;11.070;2024-01-15T07:54:55;12.17;;;6.30;;
15358;SDS011;7779;49.596;11.070;2024-01-15T07:57:21;11.87;;;6.90;;
15358;SDS011;7779;49.596;11.070;2024-01-15T07:59:48;11.53;;;7.30;;
15358;SDS011;7779;49.596;11.070;2024-01-15T08:02:13;13.20;;;7.70;;
15358;SDS011;7779;49.596;11.070;2024-01-15T08:04:40;11.10;;;6.93;;
15358;SDS011;7779;49.596;11.070;2024-01-15T08:07:06;13.20;;;7.43;;
15358;SDS011;7779;49.596;11.070;2024-01-15T08:09:33;12.83;;;7.27;;
15358;SDS011;7779;49.596;11.070;2024-01-15T08:11:59;11.90;;;7.57;;
15358;SDS011;7779;49.596;11.070;2024-01-15T08:14:25;12.27;;;7.43;;
15358;SDS011;7779;49.596;11.070;2024-01-15T08:16:50;11.37;;;7.67;;
15358;SDS011;7779;49.596;11.070;2024-01-15T08:19:16;12.50;;;7.27;;
15358;SDS011;7779;49.596;11.070;2024-01-15T08:21:42;11.27;;;6.97;;
15358;SDS011;7779;49.596;11.070;2024-01-15T08:24:08;11.43;;;7.27;;
15358;SDS011;7779;49.596;11.070;2024-01-15T08:26:33;12.10;;;7.30;;
15358;SDS011;7779;49.596;11.070;2024-01-15T08:28:59;11.90;;;7.03;;
15358;SDS011;7779;49.596;11.070;2024-01-15T08:31:25;12.03;;;7.50;;
15358;SDS011;7779;49.596;11.070;2024-01-15T08:33:52;13.80;;;7.33;;
15358;SDS011;7779;49.596;11.070;2024-01-15T08:36:18;12.00;;;7.30;;
15358;SDS011;7779;49.596;11.070;2024-01-15T08:38:44;12.60;;;7.80;;
15358;SDS011;7779;49.596;11.070;2024-01-15T08:41:10;14.37;;;8.23;;
15358;SDS011;7779;49.596;11.070;2024-01-15T08:43:35;9.83;;;6.40;;
15358;SDS011;7779;49.596;11.070;2024-01-15T08:46:02;12.70;;;7.40;;
15358;SDS011;7779;49.596;11.070;2024-01-15T08:48:27;12.73;;;8.17;;
15358;SDS011;7779;49.596;11.070;2024-01-15T08:50:53;14.37;;;8.50;;
15358;SDS011;7779;49.596;11.070;2024-01-15T08:53:20;12.87;;;8.27;;
15358;SDS011;7779;49.596;11.070;2024-01-15T08:55:46;12.20;;;7.50;;
15358;SDS011;7779;49.596;11.070;2024-01-15T08:58:12;15.73;;;7.90;;
15358;SDS011;7779;49.596;11.070;2024-01-15T09:00:39;13.17;;;7.80;;
15358;SDS011;7779;49.596;11.070;2024-01-15T09:03:05;12.87;;;7.77;;
15358;SDS011;7779;49.596;11.070;2024-01-15T09:05:31;11.93;;;7.40;;
15358;SDS011;7779;49.596;11.070;2024-01-15T09:07:57;11.90;;;7.77;;
15358;SDS011;7779;49.596;11.070;2024-01-15T09:10:23;12.67;;;7.67;;
15358;SDS011;7779;49.596;11.070;2024-01-15T09:12:49;10.83;;;7.20;;
15358;SDS011;7779;49.596;11.070;2024-01-15T09:15:14;12.50;;;7.40;;
15358;SDS011;7779;49.596;11.070;2024-01-15T09:17:40;13.93;;;8.10;;
15358;SDS011;7779;49.596;11.070;2024-01-15T09:20:06;10.83;;;6.93;;
15358;SDS011;7779;49.596;11.070;2024-01-15T09:22:33;12.73;;;7.23;;
15358;SDS011;7779;49.596;11.070;2024-01-15T09:24:59;11.17;;;7.00;;
15358;SDS011;7779;49.596;11.070;2024-01-15T09:27:25;10.90;;;7.00;;
15358;SDS011;7779;49.596;11.070;2024-01-15T09:29:51;10.87;;;7.03;;
15358;SDS011;7779;49.596;11.070;2024-01-15T09:32:17;10.47;;;6.57;;
15358;SDS011;7779;49.596;11.070;2024-01-15T09:34:43;10.77;;;6.83;;
15358;SDS011;7779;49.596;11.070;2024-01-15T09:37:11;11.37;;;7.00;;
15358;SDS011;7779;49.596;11.070;2024-01-15T09:39:39;11.50;;;6.43;;
15358;SDS011;7779;49.596;11.070;2024-01-15T09:42:05;13.50;;;7.07;;
15358;SDS011;7779;49.596;11.070;2024-01-15T09:44:31;10.07;;;5.97;;
15358;SDS011;7779;49.596;11.070;2024-01-15T09:46:57;10.40;;;6.50;;
15358;SDS011;7779;49.596;11.070;2024-01-15T09:49:24;10.87;;;7.27;;
15358;SDS011;7779;49.596;11.070;2024-01-15T09:51:49;10.47;;;6.70;;
15358;SDS011;7779;49.596;11.070;2024-01-15T09:54:16;11.30;;;6.67;;
15358;SDS011;7779;49.596;11.070;2024-01-15T09:56:45;10.27;;;6.83;;
15358;SDS011;7779;49.596;11.070;2024-01-15T09:59:16;11.77;;;7.07;;
15358;SDS011;7779;49.596;11.070;2024-01-15T10:01:44;11.07;;;6.73;;
15358;SDS011;7779;49.596;11.070;2024-01-15T10:04:10;10.97;;;5.97;;
15358;SDS011;7779;49.596;11.070;2024-01-15T10:06:41;10.47;;;6.83;;
15358;SDS011;7779;49.596;11.070;2024-01-15T10:09:13;11.30;;;5.90;;
15358;SDS011;7779;49.596;11.070;2024-01-15T10:11:43;12.53;;;7.23;;
15358;SDS011;7779;49.596;11.070;2024-01-15T10:14:10;11.07;;;7.07;;
15358;SDS011;7779;49.596;11.070;2024-01-15T10:16:39;10.07;;;6.90;;
15358;SDS011;7779;49.596;11.070;2024-01-15T10:19:06;10.97;;;6.97;;
15358;SDS011;7779;49.596;11.070;2024-01-15T10:21:33;10.20;;;6.50;;
15358;SDS011;7779;49.596;11.070;2024-01-15T10:24:00;11.23;;;7.27;;
15358;SDS011;7779;49.596;11.070;2024-01-15T10:26:27;10.53;;;6.37;;
15358;SDS011;7779;49.596;11.070;2024-01-15T10:28:54;11.17;;;6.97;;
15358;SDS011;7779;49.596;11.070;2024-01-15T10:31:20;12.57;;;7.50;;
15358;SDS011;7779;49.596;11.070;2024-01-15T10:33:47;11.70;;;7.10;;
15358;SDS011;7779;49.596;11.070;2024-01-15T10:36:14;11.70;;;6.83;;
15358;SDS011;7779;49.596;11.070;2024-01-15T10:38:45;12.33;;;7.23;;
15358;SDS011;7779;49.596;11.070;2024-01-15T10:41:11;12.70;;;7.03;;
15358;SDS011;7779;49.596;11.070;2024-01-15T10:43:37;11.63;;;7.03;;
15358;SDS011;7779;49.596;11.070;2024-01-15T10:46:06;11.33;;;6.87;;
15358;SDS011;7779;49.596;11.070;2024-01-15T10:48:32;11.57;;;7.03;;
15358;SDS011;7779;49.596;11.070;2024-01-15T10:51:00;11.60;;;7.33;;
15358;SDS011;7779;49.596;11.070;2024-01-15T10:53:35;9.03;;;6.20;;
15358;SDS011;7779;49.596;11.070;2024-01-15T10:56:05;9.27;;;6.30;;
15358;SDS011;7779;49.596;11.070;2024-01-15T10:58:32;10.97;;;6.10;;
15358;SDS011;7779;49.596;11.070;2024-01-15T11:01:00;9.73;;;6.47;;
15358;SDS011;7779;49.596;11.070;2024-01-15T11:03:27;8.97;;;6.17;;
15358;SDS011;7779;49.596;11.070;2024-01-15T11:05:53;8.57;;;6.20;;
15358;SDS011;7779;49.596;11.070;2024-01-15T11:08:19;10.23;;;6.20;;
15358;SDS011;7779;49.596;11.070;2024-01-15T11:10:46;8.83;;;5.90;;
15358;SDS011;7779;49.596;11.070;2024-01-15T11:16:07;8.60;;;5.77;;
15358;SDS011;7779;49.596;11.070;2024-01-15T11:23:47;9.80;;;6.47;;
15358;SDS011;7779;49.596;11.070;2024-01-15T11:26:44;9.70;;;6.17;;
15358;SDS011;7779;49.596;11.070;2024-01-15T11:29:31;8.63;;;5.87;;
15358;SDS011;7779;49.596;11.070;2024-01-15T11:32:01;7.23;;;5.50;;
15358;SDS011;7779;49.596;11.070;2024-01-15T11:37:27;9.33;;;6.00;;
15358;SDS011;7779;49.596;11.070;2024-01-15T11:40:14;8.60;;;5.93;;
15358;SDS011;7779;49.596;11.070;2024-01-15T11:42:48;14.07;;;6.30;;
15358;SDS011;7779;49.596;11.070;2024-01-15T11:45:21;9.53;;;6.27;;
15358;SDS011;7779;49.596;11.070;2024-01-15T11:50:44;10.47;;;5.93;;
15358;SDS011;7779;49.596;11.070;2024-01-15T11:53:16;8.23;;;5.40;;
15358;SDS011;7779;49.596;11.070;2024-01-15T11:55:48;9.67;;;6.33;;
15358;SDS011;7779;49.596;11.070;2024-01-15T11:58:17;8.47;;;6.07;;
15358;SDS011;7779;49.596;11.070;2024-01-15T12:00:44;9.43;;;6.10;;
15358;SDS011;7779;49.596;11.070;2024-01-15T12:03:13;9.27;;;5.77;;
15358;SDS011;7779;49.596;11.070;2024-01-15T12:05:39;7.87;;;5.93;;
15358;SDS011;7779;49.596;11.070;2024-01-15T12:08:07;8.57;;;5.73;;
15358;SDS011;7779;49.596;11.070;2024-01-15T12:10:39;8.63;;;5.63;;
15358;SDS011;7779;49.596;11.070;2024-01-15T12:13:10;6.97;;;5.20;;
15358;SDS011;7779;49.596;11.070;2024-01-15T12:15:38;9.10;;;6.00;;
15358;SDS011;7779;49.596;11.070;2024-01-15T12:18:08;7.93;;;5.70;;
15358;SDS011;7779;49.596;11.070;2024-01-15T12:20:35;9.10;;;6.20;;
15358;SDS011;7779;49.596;11.070;2024-01-15T12:23:02;8.00;;;6.07;;
15358;SDS011;7779;49.596;11.070;2024-01-15T12:25:29;8.07;;;6.10;;
15358;SDS011;7779;49.596;11.070;2024-01-15T12:27:56;10.23;;;6.13;;
15358;SDS011;7779;49.596;11.070;2024-01-15T12:30:22;8.93;;;6.13;;
15358;SDS011;7779;49.596;11.070;2024-01-15T12:32:48;11.57;;;6.13;;
15358;SDS011;7779;49.596;11.070;2024-01-15T12:35:14;8.83;;;5.70;;
15358;SDS011;7779;49.596;11.070;2024-01-15T12:37:40;9.17;;;6.30;;
15358;SDS011;7779;49.596;11.070;2024-01-15T12:40:08;8.80;;;5.53;;
15358;SDS011;7779;49.596;11.070;2024-01-15T12:42:41;7.20;;;5.47;;
15358;SDS011;7779;49.596;11.070;2024-01-15T12:45:08;8.40;;;5.93;;
15358;SDS011;7779;49.596;11.070;2024-01-15T12:47:36;7.80;;;5.53;;
15358;SDS011;7779;49.596;11.070;2024-01-15T12:50:02;7.70;;;5.57;;
15358;SDS011;7779;49.596;11.070;2024-01-15T12:52:32;9.03;;;5.77;;
15358;SDS011;7779;49.596;11.070;2024-01-15T12:54:58;9.07;;;5.77;;
15358;SDS011;7779;49.596;11.070;2024-01-15T12:57:23;7.40;;;5.37;;
15358;SDS011;7779;49.596;11.070;2024-01-15T12:59:49;9.00;;;6.30;;
15358;SDS011;7779;49.596;11.070;2024-01-15T13:02:15;9.47;;;6.00;;
15358;SDS011;7779;49.596;11.070;2024-01-15T13:04:41;8.47;;;5.60;;
15358;SDS011;7779;49.596;11.070;2024-01-15T13:07:07;7.80;;;5.23;;
15358;SDS011;7779;49.596;11.070;2024-01-15T13:09:34;7.57;;;5.50;;
15358;SDS011;7779;49.596;11.070;2024-01-15T13:12:03;6.70;;;5.07;;
15358;SDS011;7779;49.596;11.070;2024-01-15T13:14:30;6.57;;;5.17;;
15358;SDS011;7779;49.596;11.070;2024-01-15T13:16:57;8.43;;;5.37;;
15358;SDS011;7779;49.596;11.070;2024-01-15T13:19:24;6.90;;;5.13;;
15358;SDS011;7779;49.596;11.070;2024-01-15T13:21:50;9.83;;;5.47;;
15358;SDS011;7779;49.596;11.070;2024-01-15T13:24:16;7.73;;;5.17;;
15358;SDS011;7779;49.596;11.070;2024-01-15T13:26:43;7.87;;;5.53;;
15358;SDS011;7779;49.596;11.070;2024-01-15T13:29:08;6.77;;;4.97;;
15358;SDS011;7779;49.596;11.070;2024-01-15T13:31:34;7.80;;;5.60;;
15358;SDS011;7779;49.596;11.070;2024-01-15T13:34:00;8.47;;;5.77;;
15358;SDS011;7779;49.596;11.070;2024-01-15T13:36:26;7.33;;;5.07;;
15358;SDS011;7779;49.596;11.070;2024-01-15T13:38:52;8.17;;;5.67;;
15358;SDS011;7779;49.596;11.070;2024-01-15T13:41:22;7.10;;;4.87;;
15358;SDS011;7779;49.596;11.070;2024-01-15T13:43:52;6.53;;;4.73;;
15358;SDS011;7779;49.596;11.070;2024-01-15T13:46:20;5.33;;;4.53;;
15358;SDS011;7779;49.596;11.070;2024-01-15T13:48:51;6.63;;;5.17;;
15358;SDS011;7779;49.596;11.070;2024-01-15T13:51:18;7.40;;;5.13;;
15358;SDS011;7779;49.596;11.070;2024-01-15T13:53:47;8.00;;;5.20;;
15358;SDS011;7779;49.596;11.070;2024-01-15T13:56:13;6.87;;;4.87;;
15358;SDS011;7779;49.596;11.070;2024-01-15T13:58:38;6.13;;;4.33;;
15358;SDS011;7779;49.596;11.070;2024-01-15T14:01:04;6.47;;;4.50;;
15358;SDS011;7779;49.596;11.070;2024-01-15T14:03:31;5.60;;;4.17;;
15358;SDS011;7779;49.596;11.070;2024-01-15T14:05:57;5.57;;;4.27;;
15358;SDS011;7779;49.596;11.070;2024-01-15T14:08:23;5.90;;;4.20;;
15358;SDS011;7779;49.596;11.070;2024-01-15T14:10:49;6.87;;;4.20;;
15358;SDS011;7779;49.596;11.070;2024-01-15T14:13:15;5.97;;;4.20;;
15358;SDS011;7779;49.596;11.070;2024-01-15T14:15:40;6.33;;;4.50;;
15358;SDS011;7779;49.596;11.070;2024-01-15T14:18:06;7.67;;;4.83;;
15358;SDS011;7779;49.596;11.070;2024-01-15T14:20:32;6.20;;;4.37;;
15358;SDS011;7779;49.596;11.070;2024-01-15T14:22:58;5.80;;;4.30;;
15358;SDS011;7779;49.596;11.070;2024-01-15T14:25:23;5.90;;;4.17;;
15358;SDS011;7779;49.596;11.070;2024-01-15T14:27:49;5.43;;;4.03;;
15358;SDS011;7779;49.596;11.070;2024-01-15T14:30:15;4.53;;;3.90;;
15358;SDS011;7779;49.596;11.070;2024-01-15T14:32:42;5.83;;;4.20;;
15358;SDS011;7779;49.596;11.070;2024-01-15T14:35:08;4.33;;;3.77;;
15358;SDS011;7779;49.596;11.070;2024-01-15T14:37:37;5.07;;;3.70;;
15358;SDS011;7779;49.596;11.070;2024-01-15T14:40:04;5.90;;;3.50;;
15358;SDS011;7779;49.596;11.070;2024-01-15T14:42:32;4.77;;;3.87;;
15358;SDS011;7779;49.596;11.070;2024-01-15T14:44:59;4.67;;;3.87;;